In Rescue
 
Open Full Screen Window  High Contrast Mode
Wind Gusting 00 knots
06
May 20, 2019 1:29 PM CDT
Weather Information
Wind Direction
  350 °
Wind Speed
  06 kt (7 mph)
Wind Gust
  00 kt (0 mph)
Altimeter
30.17 in
Visibility
10 SM
Temperature
14° C
57° F
Dewpoint
02° C
36° F
Humidity
44%
1hr Rain Fall
00.00 in.
24hr Rain Fall
00.02 in.
Sky Condition
Clear
VFR

METAR KROS 201829Z AUTO 35006KT 10SM CLR 14/02 A3017 RMK AO2 T01440015

FAA Disclaimer: The data displayed is for advisory purposes only and is not to be used for flight planning or operations.